createdAt,value
2022-09-01T00:00:02.893Z,13.80
2022-09-01T00:02:30.722Z,13.76
2022-09-01T00:04:59.084Z,13.70
2022-09-01T00:07:30.987Z,13.66
2022-09-01T00:09:59.543Z,13.60
2022-09-01T00:12:26.731Z,13.59
2022-09-01T00:14:54.537Z,13.57
2022-09-01T00:17:21.909Z,13.40
2022-09-01T00:19:48.974Z,13.43
2022-09-01T00:22:16.609Z,13.45
2022-09-01T00:24:43.422Z,13.43
2022-09-01T00:27:10.127Z,13.37
2022-09-01T00:29:38.335Z,13.36
2022-09-01T00:32:10.095Z,13.38
2022-09-01T00:34:36.730Z,13.40
2022-09-01T00:37:03.571Z,13.44
2022-09-01T00:39:30.783Z,13.48
2022-09-01T00:41:59.668Z,13.48
2022-09-01T00:44:29.596Z,13.52
2022-09-01T00:46:59.670Z,13.52
2022-09-01T00:49:36.735Z,13.52
2022-09-01T00:52:24.952Z,13.51
2022-09-01T00:54:58.376Z,13.46
2022-09-01T00:57:25.567Z,13.41
2022-09-01T01:00:00.784Z,13.35
2022-09-01T01:02:27.557Z,13.31
2022-09-01T01:04:58.743Z,13.17
2022-09-01T01:07:27.379Z,13.21
2022-09-01T01:09:54.200Z,13.05
2022-09-01T01:12:21.624Z,13.02
2022-09-01T01:14:50.948Z,12.86
2022-09-01T01:17:19.669Z,12.79
2022-09-01T01:20:11.882Z,12.70
2022-09-01T01:23:09.137Z,12.61
2022-09-01T01:25:44.771Z,12.39
2022-09-01T01:28:28.669Z,12.43
2022-09-01T01:31:13.437Z,12.32
2022-09-01T01:33:52.346Z,12.27
2022-09-01T01:36:37.671Z,12.14
2022-09-01T01:39:10.931Z,12.16
2022-09-01T01:41:42.713Z,12.07
2022-09-01T01:44:12.070Z,11.97
2022-09-01T01:46:43.055Z,11.92
2022-09-01T01:49:16.008Z,11.86
2022-09-01T01:51:47.402Z,11.83
2022-09-01T01:54:15.867Z,11.85
2022-09-01T01:56:43.367Z,11.67
2022-09-01T01:59:16.525Z,11.78
2022-09-01T02:01:49.410Z,11.70
2022-09-01T02:04:17.114Z,11.67
2022-09-01T02:06:47.964Z,11.54
2022-09-01T02:09:18.483Z,11.62
2022-09-01T02:11:48.247Z,11.56
2022-09-01T02:14:20.646Z,11.55
2022-09-01T02:16:47.826Z,11.52
2022-09-01T02:19:14.603Z,11.46
2022-09-01T02:21:45.494Z,11.44
2022-09-01T02:24:12.942Z,11.44
2022-09-01T02:26:43.104Z,11.38
2022-09-01T02:29:24.001Z,11.37
2022-09-01T02:31:53.710Z,11.15
2022-09-01T02:34:24.182Z,11.28
2022-09-01T02:36:55.076Z,11.19
2022-09-01T02:39:28.340Z,11.21
2022-09-01T02:41:55.170Z,11.25
2022-09-01T02:44:23.825Z,11.20
2022-09-01T02:46:51.112Z,11.13
2022-09-01T02:49:24.913Z,11.15
2022-09-01T02:51:54.097Z,11.18
2022-09-01T02:54:22.904Z,11.23
2022-09-01T02:56:49.994Z,11.26
2022-09-01T02:59:18.375Z,11.30
2022-09-01T03:01:46.979Z,11.28
2022-09-01T03:04:14.837Z,11.38
2022-09-01T03:06:41.957Z,11.40
2022-09-01T03:09:12.164Z,11.41
2022-09-01T03:11:42.601Z,11.44
2022-09-01T03:14:09.794Z,11.45
2022-09-01T03:16:39.418Z,11.42
2022-09-01T03:19:09.846Z,11.49
2022-09-01T03:21:41.586Z,11.57
2022-09-01T03:24:11.127Z,11.60
2022-09-01T03:26:38.069Z,11.72
2022-09-01T03:29:04.879Z,11.74
2022-09-01T03:31:32.322Z,11.80
2022-09-01T03:34:00.789Z,11.77
2022-09-01T03:36:28.788Z,11.90
2022-09-01T03:38:57.569Z,11.80
2022-09-01T03:41:28.538Z,11.99
2022-09-01T03:44:01.079Z,12.03
2022-09-01T03:46:35.654Z,12.06
2022-09-01T03:49:07.695Z,12.05
2022-09-01T03:51:35.347Z,12.01
2022-09-01T03:54:01.964Z,12.03
2022-09-01T03:56:29.950Z,12.02
2022-09-01T03:58:59.316Z,12.05
2022-09-01T04:01:28.867Z,11.98
2022-09-01T04:03:57.488Z,12.01
2022-09-01T04:06:24.709Z,11.99
2022-09-01T04:09:03.384Z,12.02
2022-09-01T04:11:31.104Z,11.96
2022-09-01T04:13:58.595Z,11.99
2022-09-01T04:16:48.238Z,12.05
2022-09-01T04:19:20.599Z,11.85
2022-09-01T04:21:52.370Z,12.02
2022-09-01T04:24:19.672Z,12.11
2022-09-01T04:26:48.864Z,12.04
2022-09-01T04:29:19.506Z,12.10
2022-09-01T04:31:48.896Z,12.10
2022-09-01T04:34:16.395Z,12.08
2022-09-01T04:36:45.044Z,12.12
2022-09-01T04:39:12.959Z,12.08
2022-09-01T04:41:46.153Z,12.09
2022-09-01T04:44:16.889Z,12.19
2022-09-01T04:46:46.517Z,12.11
2022-09-01T04:49:19.330Z,12.18
2022-09-01T04:51:53.347Z,12.15
2022-09-01T04:54:23.588Z,12.13
2022-09-01T04:56:53.026Z,12.20
2022-09-01T04:59:24.321Z,12.00
2022-09-01T05:01:54.416Z,12.25
2022-09-01T05:04:28.263Z,12.28
2022-09-01T05:07:02.182Z,11.91
2022-09-01T05:09:35.619Z,12.31
2022-09-01T05:12:15.569Z,12.36
2022-09-01T05:14:47.243Z,12.38
2022-09-01T05:17:14.808Z,12.46
2022-09-01T05:19:45.185Z,12.48
2022-09-01T05:22:13.327Z,12.44
2022-09-01T05:24:42.232Z,12.48
2022-09-01T05:27:10.611Z,12.62
2022-09-01T05:29:38.601Z,12.61
2022-09-01T05:32:10.854Z,12.64
2022-09-01T05:34:39.836Z,12.66
2022-09-01T05:37:08.639Z,12.68
2022-09-01T05:39:38.207Z,12.69
2022-09-01T05:42:08.138Z,12.74
2022-09-01T05:44:36.259Z,12.83
2022-09-01T05:47:04.162Z,12.80
2022-09-01T05:49:33.290Z,12.80
2022-09-01T05:52:00.565Z,12.87
2022-09-01T05:54:32.227Z,12.51
2022-09-01T05:57:23.501Z,12.99
2022-09-01T05:59:55.116Z,13.02
2022-09-01T06:02:23.940Z,13.12
2022-09-01T06:04:50.785Z,13.15
2022-09-01T06:07:25.425Z,13.14
2022-09-01T06:09:53.839Z,13.24
2022-09-01T06:12:24.187Z,13.33
2022-09-01T06:14:55.678Z,13.31
2022-09-01T06:17:27.164Z,13.32
2022-09-01T06:19:56.378Z,13.36
2022-09-01T06:22:25.546Z,13.42
2022-09-01T06:25:01.878Z,13.45
2022-09-01T06:27:29.492Z,13.60
2022-09-01T06:29:56.575Z,13.68
2022-09-01T06:32:26.575Z,13.79
2022-09-01T06:34:53.446Z,13.75
2022-09-01T06:37:23.158Z,13.82
2022-09-01T06:39:50.985Z,13.82
2022-09-01T06:42:19.523Z,13.83
2022-09-01T06:44:46.465Z,13.83
2022-09-01T06:47:13.538Z,14.02
2022-09-01T06:49:41.060Z,14.17
2022-09-01T06:52:08.576Z,14.30
2022-09-01T06:54:40.085Z,14.47
2022-09-01T06:59:54.303Z,14.77
2022-09-01T07:02:26.558Z,14.73
2022-09-01T07:04:54.061Z,14.66
2022-09-01T07:10:29.181Z,14.71
2022-09-01T07:13:06.293Z,14.75
2022-09-01T07:16:33.207Z,14.91
2022-09-01T07:18:25.251Z,15.00
2022-09-01T07:21:36.989Z,15.13
2022-09-01T07:26:28.595Z,15.21
2022-09-01T07:34:38.810Z,15.31
2022-09-01T07:42:30.447Z,15.11
2022-09-01T07:42:30.882Z,15.33
2022-09-01T07:42:31.641Z,15.10
2022-09-01T07:42:59.593Z,15.05
2022-09-01T07:45:29.114Z,15.45
2022-09-01T07:47:57.241Z,15.58
2022-09-01T07:50:38.622Z,15.59
2022-09-01T07:53:09.908Z,15.65
2022-09-01T07:55:44.148Z,15.84
2022-09-01T07:58:13.083Z,15.87
2022-09-01T08:00:43.298Z,15.89
2022-09-01T08:03:09.966Z,16.01
2022-09-01T08:05:37.364Z,16.18
2022-09-01T08:08:18.548Z,16.25
2022-09-01T08:10:49.080Z,16.35
2022-09-01T08:13:17.512Z,16.63
2022-09-01T08:18:50.557Z,16.99
2022-09-01T08:21:19.090Z,16.98
2022-09-01T08:23:45.867Z,17.32
2022-09-01T08:26:16.474Z,17.27
2022-09-01T08:28:47.208Z,17.30
2022-09-01T08:31:22.631Z,17.42
2022-09-01T08:33:50.887Z,17.19
2022-09-01T08:36:23.015Z,17.06
2022-09-01T08:38:53.194Z,16.93
2022-09-01T08:41:46.846Z,16.92
2022-09-01T08:44:23.655Z,16.98
2022-09-01T08:46:57.839Z,17.06
2022-09-01T08:49:27.621Z,17.12
2022-09-01T08:52:11.634Z,17.07
2022-09-01T08:54:47.089Z,17.03
2022-09-01T08:57:23.359Z,17.25
2022-09-01T08:59:50.072Z,17.67
2022-09-01T09:02:37.939Z,17.93
2022-09-01T09:05:32.357Z,18.13
2022-09-01T09:08:08.194Z,18.07
2022-09-01T09:11:01.100Z,17.99
2022-09-01T09:14:11.763Z,19.59
2022-09-01T09:16:53.904Z,21.02
2022-09-01T09:19:37.365Z,21.20
2022-09-01T09:22:17.362Z,21.77
2022-09-01T09:24:52.840Z,22.18
2022-09-01T09:27:23.538Z,21.01
2022-09-01T09:30:01.766Z,20.00
2022-09-01T09:33:15.998Z,19.44
2022-09-01T09:35:33.372Z,18.91
2022-09-01T09:38:18.987Z,18.58
2022-09-01T09:41:16.335Z,18.36
2022-09-01T09:43:50.520Z,19.52
2022-09-01T09:46:43.717Z,20.44
2022-09-01T09:49:21.501Z,19.35
2022-09-01T09:52:09.962Z,20.73
2022-09-01T09:54:41.587Z,21.80
2022-09-01T09:57:15.264Z,21.24
2022-09-01T10:00:00.655Z,22.22
2022-09-01T10:02:44.991Z,20.48
2022-09-01T10:05:28.084Z,19.58
2022-09-01T10:07:56.411Z,19.02
2022-09-01T10:10:57.260Z,18.73
2022-09-01T10:13:26.920Z,18.45
2022-09-01T10:15:57.476Z,18.34
2022-09-01T10:18:38.969Z,19.56
2022-09-01T10:21:09.956Z,23.06
2022-09-01T10:23:38.800Z,24.03
2022-09-01T10:26:30.090Z,21.58
2022-09-01T10:29:01.901Z,19.88
2022-09-01T10:31:32.688Z,19.13
2022-09-01T10:34:05.472Z,19.43
2022-09-01T10:36:34.360Z,19.07
2022-09-01T10:39:06.156Z,18.79
2022-09-01T10:41:59.659Z,18.78
2022-09-01T10:44:36.683Z,18.85
2022-09-01T10:47:30.257Z,20.50
2022-09-01T10:50:01.705Z,20.32
2022-09-01T10:52:44.011Z,19.51
2022-09-01T10:55:25.420Z,19.26
2022-09-01T10:57:56.130Z,19.24
2022-09-01T11:00:38.727Z,19.97
2022-09-01T11:03:31.619Z,22.41
2022-09-01T11:06:11.998Z,23.30
2022-09-01T11:09:01.031Z,22.28
2022-09-01T11:11:43.642Z,24.27
2022-09-01T11:14:22.463Z,25.05
2022-09-01T11:17:12.484Z,25.85
2022-09-01T11:20:12.240Z,28.44
2022-09-01T11:22:57.080Z,30.22
2022-09-01T11:25:39.508Z,27.15
2022-09-01T11:28:12.140Z,25.23
2022-09-01T11:30:39.707Z,23.54
2022-09-01T11:33:11.468Z,22.32
2022-09-01T11:35:38.235Z,21.51
2022-09-01T11:38:08.736Z,20.96
2022-09-01T11:40:36.524Z,22.95
2022-09-01T11:43:12.514Z,25.64
2022-09-01T11:46:13.009Z,27.61
2022-09-01T11:48:39.996Z,27.43
2022-09-01T11:51:06.684Z,24.33
2022-09-01T11:53:33.633Z,23.74
2022-09-01T11:56:18.770Z,27.04
2022-09-01T11:58:45.688Z,27.45
2022-09-01T12:01:22.525Z,25.36
2022-09-01T12:03:51.341Z,22.95
2022-09-01T12:06:24.596Z,21.90
2022-09-01T12:08:54.779Z,22.05
2022-09-01T12:11:30.520Z,24.77
2022-09-01T12:14:12.114Z,23.97
2022-09-01T12:16:42.850Z,22.02
2022-09-01T12:19:24.285Z,21.73
2022-09-01T12:22:04.811Z,22.43
2022-09-01T12:24:35.862Z,23.20
2022-09-01T12:27:03.295Z,22.46
2022-09-01T12:29:32.388Z,22.90
2022-09-01T12:32:00.817Z,25.62
2022-09-01T12:34:33.310Z,26.11
2022-09-01T12:37:07.862Z,27.55
2022-09-01T12:39:38.542Z,28.84
2022-09-01T12:42:27.595Z,27.91
2022-09-01T12:44:59.792Z,28.20
2022-09-01T12:47:48.109Z,28.64
2022-09-01T12:50:16.569Z,28.81
2022-09-01T12:52:47.185Z,27.29
2022-09-01T12:58:12.998Z,25.93
2022-09-01T13:00:55.710Z,23.49
2022-09-01T13:03:23.441Z,22.07
2022-09-01T13:05:53.219Z,21.32
2022-09-01T13:08:22.900Z,20.81
2022-09-01T13:10:55.620Z,24.11
2022-09-01T13:13:24.903Z,27.09
2022-09-01T13:15:54.772Z,29.03
2022-09-01T13:18:24.207Z,29.14
2022-09-01T13:20:53.155Z,26.79
2022-09-01T13:23:21.193Z,25.38
2022-09-01T13:25:48.471Z,23.13
2022-09-01T13:28:17.887Z,21.51
2022-09-01T13:31:28.583Z,20.72
2022-09-01T13:36:44.472Z,20.58
2022-09-01T13:39:13.581Z,20.79
2022-09-01T13:41:40.224Z,22.34
2022-09-01T13:44:08.498Z,21.69
2022-09-01T13:46:35.566Z,21.26
2022-09-01T13:49:04.820Z,22.67
2022-09-01T13:51:54.787Z,24.41
2022-09-01T13:54:21.475Z,25.40
2022-09-01T13:56:48.211Z,25.68
2022-09-01T13:59:15.053Z,23.73
2022-09-01T14:01:42.918Z,21.98
2022-09-01T14:04:10.435Z,20.57
2022-09-01T14:06:45.003Z,19.84
2022-09-01T14:09:17.346Z,19.31
2022-09-01T14:11:44.332Z,18.95
2022-09-01T14:14:11.251Z,18.68
2022-09-01T14:16:38.079Z,19.77
2022-09-01T14:19:04.888Z,22.03
2022-09-01T14:21:33.065Z,23.81
2022-09-01T14:24:00.278Z,25.05
2022-09-01T14:26:28.179Z,25.68
2022-09-01T14:28:55.148Z,26.14
2022-09-01T14:31:22.601Z,25.78
2022-09-01T14:33:49.614Z,24.86
2022-09-01T14:36:28.050Z,24.08
2022-09-01T14:38:54.808Z,24.17
2022-09-01T14:41:26.828Z,24.24
2022-09-01T14:43:57.597Z,23.17
2022-09-01T14:46:34.682Z,21.30
2022-09-01T14:49:03.115Z,20.03
2022-09-01T14:54:19.663Z,18.58
2022-09-01T14:59:34.802Z,18.21
2022-09-01T15:02:01.730Z,19.71
2022-09-01T15:04:28.415Z,20.63
2022-09-01T15:06:55.645Z,20.20
2022-09-01T15:09:23.141Z,19.48
2022-09-01T15:11:49.838Z,18.80
2022-09-01T15:14:17.897Z,18.34
2022-09-01T15:16:44.609Z,18.04
2022-09-01T15:19:13.133Z,18.09
2022-09-01T15:21:43.887Z,18.45
2022-09-01T15:24:11.315Z,18.01
2022-09-01T15:26:40.954Z,17.77
2022-09-01T15:29:10.064Z,17.88
2022-09-01T15:31:36.833Z,18.06
2022-09-01T15:34:04.849Z,18.11
2022-09-01T15:36:36.161Z,17.47
2022-09-01T15:39:03.386Z,17.00
2022-09-01T15:41:32.255Z,16.40
2022-09-01T15:44:00.309Z,16.15
2022-09-01T15:46:33.797Z,15.87
2022-09-01T15:49:02.684Z,15.55
2022-09-01T15:51:31.067Z,15.32
2022-09-01T15:54:04.188Z,14.94
2022-09-01T15:56:31.497Z,14.92
2022-09-01T15:59:01.467Z,14.78
2022-09-01T16:01:32.009Z,14.63
2022-09-01T16:03:58.761Z,14.44
2022-09-01T16:06:26.434Z,14.34
2022-09-01T16:08:55.229Z,14.20
2022-09-01T16:11:23.597Z,14.03
2022-09-01T16:13:54.208Z,13.96
2022-09-01T16:16:24.513Z,13.75
2022-09-01T16:19:00.577Z,13.66
2022-09-01T16:21:45.263Z,13.61
2022-09-01T16:24:13.975Z,13.44
2022-09-01T16:26:44.541Z,13.32
2022-09-01T16:29:45.407Z,13.28
2022-09-01T16:32:12.645Z,13.17
2022-09-01T16:34:47.225Z,13.09
2022-09-01T16:37:43.236Z,12.92
2022-09-01T16:40:10.778Z,12.94
2022-09-01T16:43:00.564Z,12.88
2022-09-01T16:46:01.034Z,12.77
2022-09-01T16:48:47.259Z,12.66
2022-09-01T16:51:26.319Z,12.56
2022-09-01T16:54:09.124Z,12.29
2022-09-01T16:56:51.048Z,12.32
2022-09-01T16:59:21.073Z,12.45
2022-09-01T17:02:05.355Z,12.41
2022-09-01T17:04:45.104Z,12.26
2022-09-01T17:07:29.564Z,12.24
2022-09-01T17:10:05.316Z,12.15
2022-09-01T17:12:48.348Z,12.07
2022-09-01T17:15:19.943Z,11.93
2022-09-01T17:18:09.507Z,11.86
2022-09-01T17:20:57.887Z,11.77
2022-09-01T17:23:28.866Z,11.69
2022-09-01T17:26:01.799Z,11.59
2022-09-01T17:28:45.338Z,11.53
2022-09-01T17:31:47.108Z,11.42
2022-09-01T17:34:29.282Z,11.40
2022-09-01T17:37:07.984Z,11.34
2022-09-01T17:39:42.151Z,11.25
2022-09-01T17:42:36.652Z,11.11
2022-09-01T17:45:15.406Z,11.08
2022-09-01T17:48:00.752Z,11.04
2022-09-01T17:50:36.467Z,10.93
2022-09-01T17:53:10.540Z,10.93
2022-09-01T17:55:42.084Z,10.89
2022-09-01T17:58:33.184Z,10.62
2022-09-01T18:01:24.323Z,10.65
2022-09-01T18:04:11.798Z,10.71
2022-09-01T18:07:21.102Z,10.58
2022-09-01T18:09:54.081Z,10.42
2022-09-01T18:12:31.428Z,10.36
2022-09-01T18:15:19.954Z,10.41
2022-09-01T18:18:00.394Z,10.36
2022-09-01T18:20:39.111Z,10.34
2022-09-01T18:23:09.465Z,10.30
2022-09-01T18:25:55.164Z,10.23
2022-09-01T18:28:21.945Z,10.23
2022-09-01T18:31:19.650Z,10.06
2022-09-01T18:34:26.219Z,10.07
2022-09-01T18:36:59.004Z,10.06
2022-09-01T18:39:37.473Z,10.02
2022-09-01T18:42:19.755Z,10.00
2022-09-01T18:45:14.501Z,9.94
2022-09-01T18:48:08.592Z,9.90
2022-09-01T18:50:45.614Z,9.81
2022-09-01T18:53:24.564Z,9.84
2022-09-01T18:56:01.276Z,9.87
2022-09-01T18:58:46.435Z,9.85
2022-09-01T19:01:16.432Z,9.67
2022-09-01T19:03:59.456Z,9.75
2022-09-01T19:06:43.661Z,9.75
2022-09-01T19:09:10.252Z,9.78
2022-09-01T19:12:04.638Z,9.72
2022-09-01T19:15:12.522Z,9.74
2022-09-01T19:17:42.546Z,9.68
2022-09-01T19:20:14.658Z,9.57
2022-09-01T19:22:47.322Z,9.37
2022-09-01T19:25:36.116Z,9.31
2022-09-01T19:28:31.745Z,9.18
2022-09-01T19:31:10.284Z,9.23
2022-09-01T19:33:47.318Z,9.18
2022-09-01T19:36:22.124Z,9.13
2022-09-01T19:38:49.805Z,9.21
2022-09-01T19:41:33.130Z,9.19
2022-09-01T19:44:08.424Z,9.18
2022-09-01T19:46:42.513Z,9.07
2022-09-01T19:49:31.012Z,9.13
2022-09-01T19:52:07.654Z,9.15
2022-09-01T19:55:04.611Z,9.15
2022-09-01T19:57:44.103Z,9.11
2022-09-01T20:00:16.634Z,9.06
2022-09-01T20:02:51.354Z,9.02
2022-09-01T20:05:38.516Z,8.84
2022-09-01T20:08:23.755Z,8.94
2022-09-01T20:11:06.116Z,8.80
2022-09-01T20:13:49.651Z,8.78
2022-09-01T20:16:27.648Z,8.71
2022-09-01T20:19:10.661Z,8.77
2022-09-01T20:21:43.575Z,8.76
2022-09-01T20:24:34.555Z,8.73
2022-09-01T20:27:01.704Z,8.68
2022-09-01T20:29:47.465Z,8.62
2022-09-01T20:32:22.783Z,8.57
2022-09-01T20:34:55.882Z,8.57
2022-09-01T20:37:29.670Z,8.51
2022-09-01T20:40:07.966Z,8.42
2022-09-01T20:43:08.875Z,8.41
2022-09-01T20:45:36.807Z,8.45
2022-09-01T20:48:07.403Z,8.40
2022-09-01T20:50:59.630Z,8.40
2022-09-01T20:53:32.009Z,8.34
2022-09-01T20:56:32.596Z,8.30
2022-09-01T20:59:04.952Z,8.23
2022-09-01T21:01:44.782Z,8.14
2022-09-01T21:04:17.229Z,8.16
2022-09-01T21:07:09.689Z,7.98
2022-09-01T21:10:11.615Z,8.10
2022-09-01T21:13:18.962Z,8.07
2022-09-01T21:15:53.428Z,8.00
2022-09-01T21:18:48.531Z,8.01
2022-09-01T21:21:41.267Z,7.99
2022-09-01T21:24:07.976Z,7.80
2022-09-01T21:26:37.994Z,7.97
2022-09-01T21:29:23.673Z,7.94
2022-09-01T21:31:50.379Z,7.93
2022-09-01T21:34:17.192Z,7.91
2022-09-01T21:36:43.962Z,7.91
2022-09-01T21:39:10.625Z,7.86
2022-09-01T21:41:39.287Z,7.93
2022-09-01T21:44:06.629Z,7.93
2022-09-01T21:46:33.767Z,7.85
2022-09-01T21:49:00.409Z,7.87
2022-09-01T21:51:27.273Z,7.85
2022-09-01T21:53:53.916Z,7.64
2022-09-01T21:56:25.671Z,7.69
2022-09-01T21:58:52.737Z,7.72
2022-09-01T22:01:19.477Z,7.73
2022-09-01T22:03:46.156Z,7.53
2022-09-01T22:06:13.981Z,7.57
2022-09-01T22:08:40.686Z,7.57
2022-09-01T22:11:10.208Z,7.51
2022-09-01T22:13:37.744Z,7.49
2022-09-01T22:16:05.137Z,7.48
2022-09-01T22:18:31.871Z,7.46
2022-09-01T22:21:08.803Z,7.52
2022-09-01T22:23:36.157Z,7.46
2022-09-01T22:26:03.119Z,7.37
2022-09-01T22:28:29.916Z,7.40
2022-09-01T22:30:56.974Z,7.33
2022-09-01T22:33:23.972Z,7.28
2022-09-01T22:35:55.343Z,7.16
2022-09-01T22:38:23.323Z,7.15
2022-09-01T22:40:55.178Z,7.11
2022-09-01T22:43:24.363Z,7.05
2022-09-01T22:45:51.980Z,7.04
2022-09-01T22:48:23.025Z,7.05
2022-09-01T22:50:51.352Z,7.02
2022-09-01T22:53:20.382Z,6.85
2022-09-01T22:55:50.738Z,6.89
2022-09-01T22:58:19.028Z,7.11
2022-09-01T23:00:53.050Z,7.22
2022-09-01T23:03:21.874Z,7.23
2022-09-01T23:05:50.018Z,7.17
2022-09-01T23:08:17.521Z,7.22
2022-09-01T23:10:44.420Z,7.20
2022-09-01T23:13:11.051Z,7.24
2022-09-01T23:15:37.931Z,7.19
2022-09-01T23:18:04.673Z,7.18
2022-09-01T23:20:31.503Z,7.10
2022-09-01T23:22:58.136Z,7.12
2022-09-01T23:25:25.622Z,7.17
2022-09-01T23:27:52.288Z,7.12
2022-09-01T23:30:19.044Z,7.19
2022-09-01T23:32:46.635Z,7.11
2022-09-01T23:35:13.602Z,7.19
2022-09-01T23:37:41.988Z,7.09
2022-09-01T23:40:09.273Z,7.15
2022-09-01T23:42:38.901Z,7.20
2022-09-01T23:45:06.122Z,7.18
2022-09-01T23:47:34.442Z,7.11
2022-09-01T23:50:02.736Z,7.11
2022-09-01T23:52:29.351Z,7.07
2022-09-01T23:54:58.023Z,6.97
2022-09-01T23:57:24.647Z,7.00
2022-09-01T23:59:51.315Z,6.83
